Time;durP1;ratioP1;P1;durP2;ratioP2;P2;SDS_P1;SDS_P2;PMS_P1;PMS_P2;Temp;Humidity;BMP_temperature;BMP_pressure;BME280_temperature;BME280_humidity;BME280_pressure;Samples;Min_cycle;Max_cycle;Signal;HPM_P1;HPM_P2
2022/12/25 00:00:05;;;;;;;;;;;;;;;18.18;47.97;101147.13;5129443;28;19946;-58
2022/12/25 00:02:30;;;;;;;;;;;;;;;18.18;47.93;101149.91;5142952;27;20104;-58
2022/12/25 00:04:56;;;;;;;;;;;;;;;18.19;47.88;101151.53;5151084;27;19976;-58
2022/12/25 00:07:22;;;;;;;;;;;;;;;18.18;47.84;101147.13;5140567;27;19923;-59
2022/12/25 00:09:47;;;;;;;;;;;;;;;18.18;47.91;101136.13;5130567;28;19924;-58
2022/12/25 00:12:13;;;;;;;;;;;;;;;18.18;47.79;101133.34;5140322;27;20391;-58
2022/12/25 00:14:38;;;;;;;;;;;;;;;18.18;47.98;101130.59;5150638;27;19923;-58
2022/12/25 00:17:04;;;;;;;;;;;;;;;18.18;47.91;101130.59;5150993;27;19930;-58
2022/12/25 00:19:29;;;;;;;;;;;;;;;18.19;47.86;101137.75;5137206;27;19927;-58
2022/12/25 00:21:55;;;;;;;;;;;;;;;18.19;47.83;101128.66;5139053;27;19934;-58
2022/12/25 00:24:20;;;;;;;;;;;;;;;18.18;47.87;101133.34;5153949;27;19941;-58
2022/12/25 00:26:46;;;;;;;;;;;;;;;18.19;47.78;101136.94;5154590;27;20324;-58
2022/12/25 00:29:12;;;;;;;;;;;;;;;18.18;47.92;101130.59;5139400;27;19930;-59
2022/12/25 00:31:38;;;;;;;;;;;;;;;18.19;48.12;101134.19;5138804;27;19930;-58
2022/12/25 00:34:03;;;;;;;;;;;;;;;18.19;47.89;101134.19;5154340;27;19948;-58
2022/12/25 00:36:29;;;;;;;;;;;;;;;18.19;48.09;101129.50;5154294;27;19927;-59
2022/12/25 00:38:55;;;;;;;;;;;;;;;18.20;47.89;101133.91;5154580;27;19942;-59
2022/12/25 00:42:17;;;;;;;;;;;;;;;18.18;48.07;101133.34;5152710;27;19923;-59
2022/12/25 00:44:08;;;;;;;;;;;;;;;18.18;48.04;101136.13;5123413;28;20302;-58
2022/12/25 00:46:34;;;;;;;;;;;;;;;18.19;47.83;101131.44;5114994;28;20394;-59
2022/12/25 00:49:00;;;;;;;;;;;;;;;18.19;47.88;101134.19;5133627;28;20010;-58
2022/12/25 00:51:25;;;;;;;;;;;;;;;18.18;48.13;101127.84;5136574;27;19931;-58
2022/12/25 00:53:51;;;;;;;;;;;;;;;18.19;47.93;101134.19;5153844;27;19934;-58
2022/12/25 00:56:16;;;;;;;;;;;;;;;18.19;47.90;101139.69;5154202;27;19945;-58
2022/12/25 00:58:42;;;;;;;;;;;;;;;18.19;47.87;101136.94;5142886;27;19931;-58
2022/12/25 01:01:08;;;;;;;;;;;;;;;18.19;48.10;101135.00;5133924;27;20259;-58
2022/12/25 01:03:34;;;;;;;;;;;;;;;18.19;48.05;101131.44;5154015;27;19962;-58
2022/12/25 01:06:00;;;;;;;;;;;;;;;18.19;48.04;101139.69;5154200;27;20279;-58
2022/12/25 01:08:26;;;;;;;;;;;;;;;18.19;47.84;101139.69;5135785;27;20169;-58
2022/12/25 01:10:53;;;;;;;;;;;;;;;18.20;47.87;101138.59;5153706;27;20332;-58
2022/12/25 01:13:18;;;;;;;;;;;;;;;18.19;48.04;101134.19;5134823;27;19930;-58
2022/12/25 01:15:44;;;;;;;;;;;;;;;18.19;48.00;101135.00;5153844;27;19948;-58
2022/12/25 01:18:09;;;;;;;;;;;;;;;18.19;48.02;101135.00;5153311;27;19953;-58
2022/12/25 01:20:38;;;;;;;;;;;;;;;18.19;47.96;101131.44;5145473;27;19924;-58
2022/12/25 01:23:03;;;;;;;;;;;;;;;18.18;48.15;101136.13;5149569;27;19927;-58
2022/12/25 01:25:29;;;;;;;;;;;;;;;18.19;48.07;101137.75;5153650;27;20299;-58
2022/12/25 01:27:54;;;;;;;;;;;;;;;18.19;48.01;101131.44;5149939;27;19928;-59
2022/12/25 01:30:20;;;;;;;;;;;;;;;18.19;47.80;101128.66;5132675;28;19946;-59
2022/12/25 01:32:46;;;;;;;;;;;;;;;18.20;47.90;101128.38;5147300;27;20020;-58
2022/12/25 01:35:11;;;;;;;;;;;;;;;18.19;48.05;101123.97;5153575;27;19926;-58
2022/12/25 01:37:37;;;;;;;;;;;;;;;18.20;47.88;101130.31;5153613;27;19931;-59
2022/12/25 01:40:03;;;;;;;;;;;;;;;18.19;47.87;101126.75;5153612;27;19923;-58
2022/12/25 01:42:28;;;;;;;;;;;;;;;18.19;47.91;101129.50;5149466;27;19953;-58
2022/12/25 01:45:14;;;;;;;;;;;;;;;18.20;47.90;101128.38;5153510;27;19923;-58
2022/12/25 01:47:39;;;;;;;;;;;;;;;18.20;47.96;101117.34;5138004;27;19989;-58
2022/12/25 01:50:05;;;;;;;;;;;;;;;18.19;47.97;101123.16;5153403;27;20476;-58
2022/12/25 01:52:31;;;;;;;;;;;;;;;18.20;47.91;101133.06;5152901;27;19927;-58
2022/12/25 01:54:57;;;;;;;;;;;;;;;18.21;47.96;101143.00;5152527;27;20378;-59
2022/12/25 01:57:24;;;;;;;;;;;;;;;18.20;47.95;101133.06;5152915;27;19923;-59
2022/12/25 01:59:50;;;;;;;;;;;;;;;18.19;48.08;101129.50;5114095;28;19931;-58
2022/12/25 02:02:16;;;;;;;;;;;;;;;18.19;48.02;101132.25;5142518;27;20291;-58
2022/12/25 02:04:46;;;;;;;;;;;;;;;18.19;47.87;101143.28;5153169;27;19935;-58
2022/12/25 02:07:13;;;;;;;;;;;;;;;18.20;48.05;101146.84;5152823;27;20347;-58
2022/12/25 02:09:38;;;;;;;;;;;;;;;18.21;47.91;101152.09;5134550;27;19930;-58
2022/12/25 02:12:04;;;;;;;;;;;;;;;18.20;48.07;101153.19;5152648;27;19923;-58
2022/12/25 02:14:31;;;;;;;;;;;;;;;18.21;47.85;101154.03;5152820;27;19930;-58
2022/12/25 02:17:01;;;;;;;;;;;;;;;18.20;48.07;101146.84;5134202;27;19931;-58
2022/12/25 02:22:14;;;;;;;;;;;;;;;18.20;47.88;101155.94;5189728;27;19933;-56
2022/12/25 02:24:43;;;;;;;;;;;;;;;18.20;48.05;101138.59;5188996;27;19927;-56
2022/12/25 02:27:13;;;;;;;;;;;;;;;18.21;47.83;101148.50;5189485;27;19934;-56
2022/12/25 02:29:58;;;;;;;;;;;;;;;18.20;48.04;101155.94;5170640;27;20395;-56
2022/12/25 02:32:25;;;;;;;;;;;;;;;18.20;47.89;101157.88;5153148;27;19970;-56
2022/12/25 02:35:01;;;;;;;;;;;;;;;18.21;47.96;101162.28;5168763;27;20430;-56
2022/12/25 02:37:28;;;;;;;;;;;;;;;18.20;47.86;101155.94;5168494;27;19926;-56
2022/12/25 02:39:57;;;;;;;;;;;;;;;18.21;48.06;101148.50;5149878;27;19927;-56
2022/12/25 03:07:51;;;;;;;;;;;;;;;18.20;48.04;101138.59;5132126;27;19927;-56
2022/12/25 03:13:05;;;;;;;;;;;;;;;18.21;47.87;101140.25;5131582;27;19931;-56
2022/12/25 03:18:18;;;;;;;;;;;;;;;18.21;47.97;101129.22;5131701;27;19950;-56
2022/12/25 03:29:01;;;;;;;;;;;;;;;18.20;48.03;101122.88;5125339;27;19965;-56
2022/12/25 03:31:33;;;;;;;;;;;;;;;18.21;47.98;101118.19;5105782;27;19924;-56
2022/12/25 04:38:19;;;;;;;;;;;;;;;18.22;47.81;101076.59;5116624;28;19938;-56
2022/12/25 04:40:45;;;;;;;;;;;;;;;18.21;48.02;101071.31;5140044;27;19927;-56
2022/12/25 04:43:11;;;;;;;;;;;;;;;18.21;47.99;101068.56;5116668;27;19923;-56
2022/12/25 04:45:36;;;;;;;;;;;;;;;18.20;47.85;101062.22;5110495;28;19935;-56
2022/12/25 04:48:02;;;;;;;;;;;;;;;18.21;48.08;101066.63;5111690;28;19928;-56
2022/12/25 04:50:27;;;;;;;;;;;;;;;18.22;48.04;101061.94;5111633;28;19924;-56
2022/12/25 04:52:53;;;;;;;;;;;;;;;18.22;47.98;101067.47;5110313;28;19924;-56
2022/12/25 04:55:18;;;;;;;;;;;;;;;18.23;47.93;101069.16;5111132;28;19931;-55
2022/12/25 04:57:44;;;;;;;;;;;;;;;18.22;47.99;101061.94;5112921;28;19928;-55
2022/12/25 05:00:10;;;;;;;;;;;;;;;18.22;47.89;101072.97;5131369;28;19924;-56
2022/12/25 05:02:35;;;;;;;;;;;;;;;18.22;47.86;101076.59;5119223;28;19931;-56
2022/12/25 05:05:01;;;;;;;;;;;;;;;18.22;47.88;101070.22;5110888;28;20330;-56
2022/12/25 05:07:27;;;;;;;;;;;;;;;18.22;47.83;101064.69;5111279;28;19955;-56
2022/12/25 05:09:52;;;;;;;;;;;;;;;18.21;48.00;101066.63;5110521;28;19947;-56
2022/12/25 05:12:18;;;;;;;;;;;;;;;18.22;47.86;101061.94;5111106;28;20047;-56
2022/12/25 05:14:44;;;;;;;;;;;;;;;18.22;47.95;101054.53;5110817;28;19927;-56
2022/12/25 05:17:09;;;;;;;;;;;;;;;18.22;47.89;101059.19;5110971;28;20295;-56
2022/12/25 05:19:35;;;;;;;;;;;;;;;18.21;47.89;101052.84;5111279;28;19935;-56
2022/12/25 05:22:00;;;;;;;;;;;;;;;18.22;47.90;101056.44;5111141;28;20298;-56
2022/12/25 05:24:26;;;;;;;;;;;;;;;18.21;48.04;101047.34;5110567;28;19952;-56
2022/12/25 05:26:52;;;;;;;;;;;;;;;18.22;47.92;101046.25;5112124;27;20390;-56
2022/12/25 05:29:17;;;;;;;;;;;;;;;18.22;47.81;101038.00;5128029;28;20375;-56
2022/12/25 05:31:43;;;;;;;;;;;;;;;18.22;47.84;101031.63;5126205;28;19930;-56
2022/12/25 05:34:09;;;;;;;;;;;;;;;18.21;47.94;101025.28;5110283;28;19977;-56
2022/12/25 05:36:34;;;;;;;;;;;;;;;18.22;48.02;101017.84;5110544;28;19931;-56
2022/12/25 05:39:00;;;;;;;;;;;;;;;18.22;47.87;101009.56;5110438;28;19931;-56
2022/12/25 05:41:25;;;;;;;;;;;;;;;18.22;47.83;101024.22;5132963;27;19930;-56
2022/12/25 05:43:59;;;;;;;;;;;;;;;18.23;47.85;101019.53;5110139;28;19941;-56
2022/12/25 05:46:24;;;;;;;;;;;;;;;18.22;47.81;101015.94;5110747;28;19924;-56
2022/12/25 05:48:50;;;;;;;;;;;;;;;18.22;48.06;101018.69;5110412;28;20403;-56
2022/12/25 05:51:16;;;;;;;;;;;;;;;18.22;47.89;101026.97;5110655;28;20163;-56
2022/12/25 05:53:41;;;;;;;;;;;;;;;18.21;47.81;101039.06;5110175;28;20288;-56
2022/12/25 05:56:07;;;;;;;;;;;;;;;18.22;47.87;101039.91;5110125;28;20260;-55
2022/12/25 05:58:33;;;;;;;;;;;;;;;18.21;47.67;101041.81;5100671;28;20481;-56
2022/12/25 06:00:59;;;;;;;;;;;;;;;18.22;47.85;101032.47;5130769;28;19923;-56
2022/12/25 06:03:25;;;;;;;;;;;;;;;18.22;47.81;101020.59;5111379;28;19931;-56
2022/12/25 06:05:50;;;;;;;;;;;;;;;18.22;47.93;101004.06;5110275;28;19950;-56
2022/12/25 06:08:16;;;;;;;;;;;;;;;18.22;47.98;100999.41;5092089;28;19924;-56
2022/12/25 06:10:42;;;;;;;;;;;;;;;18.23;48.03;101000.22;5109915;28;19992;-56
2022/12/25 06:13:07;;;;;;;;;;;;;;;18.23;47.84;101008.50;5110136;28;20379;-56
2022/12/25 06:15:33;;;;;;;;;;;;;;;18.21;48.00;101003.22;5149784;27;19923;-56
2022/12/25 06:17:59;;;;;;;;;;;;;;;18.22;48.00;101004.06;5150930;27;19930;-56
2022/12/25 06:20:24;;;;;;;;;;;;;;;18.23;48.05;101005.75;5151366;27;19953;-56
2022/12/25 06:22:50;;;;;;;;;;;;;;;18.22;47.72;101002.16;5121513;27;19938;-56
2022/12/25 06:25:15;;;;;;;;;;;;;;;18.23;47.93;100991.97;5109761;28;20390;-55
2022/12/25 06:27:41;;;;;;;;;;;;;;;18.22;47.98;100988.38;5111584;28;20398;-56
2022/12/25 06:30:07;;;;;;;;;;;;;;;18.22;47.84;100982.00;5142593;27;19930;-56
2022/12/25 06:32:32;;;;;;;;;;;;;;;18.22;47.93;100965.47;5138915;27;19924;-56
2022/12/25 06:34:58;;;;;;;;;;;;;;;18.22;47.81;100955.28;5111174;28;19949;-56
2022/12/25 06:37:24;;;;;;;;;;;;;;;18.22;47.87;100958.06;5130287;28;19923;-56
2022/12/25 06:39:49;;;;;;;;;;;;;;;18.23;47.92;100959.69;5130329;28;19923;-56
2022/12/25 06:42:15;;;;;;;;;;;;;;;18.23;47.77;100954.19;5130297;28;19923;-56
2022/12/25 06:44:40;;;;;;;;;;;;;;;18.23;47.83;100956.94;5129813;28;19931;-56
2022/12/25 06:47:06;;;;;;;;;;;;;;;18.23;48.03;100958.88;5112015;28;19927;-56
2022/12/25 06:49:31;;;;;;;;;;;;;;;18.22;47.78;100955.28;5130387;28;19931;-56
2022/12/25 06:51:57;;;;;;;;;;;;;;;18.22;48.01;100958.06;5129847;28;19942;-56
2022/12/25 06:54:22;;;;;;;;;;;;;;;18.22;47.97;100957.19;5129791;28;19927;-56
2022/12/25 06:56:49;;;;;;;;;;;;;;;18.23;47.85;100956.13;5129955;28;19948;-55
2022/12/25 06:59:15;;;;;;;;;;;;;;;18.23;48.00;100948.69;5129529;28;19946;-56
2022/12/25 07:04:25;;;;;;;;;;;;;;;18.22;47.98;100932.38;5169982;27;19926;-56
2022/12/25 07:06:51;;;;;;;;;;;;;;;18.23;47.85;100931.31;5150368;27;19946;-56
2022/12/25 07:09:17;;;;;;;;;;;;;;;18.22;47.81;100930.50;5168846;27;20311;-56
2022/12/25 07:11:42;;;;;;;;;;;;;;;18.23;47.76;100934.91;5168800;27;19933;-56
2022/12/25 07:14:13;;;;;;;;;;;;;;;18.24;47.84;100919.19;5152330;27;20366;-56
2022/12/25 07:16:45;;;;;;;;;;;;;;;18.23;47.88;100901.00;5189624;27;19929;-56
2022/12/25 07:19:11;;;;;;;;;;;;;;;18.23;47.78;100887.22;5189707;27;19922;-56
2022/12/25 07:21:36;;;;;;;;;;;;;;;18.23;47.98;100892.72;5163169;27;19927;-56
2022/12/25 07:24:02;;;;;;;;;;;;;;;18.22;47.61;100891.91;5146676;27;19931;-56
2022/12/25 07:26:27;;;;;;;;;;;;;;;18.23;48.12;100893.53;5147993;27;19934;-56
2022/12/25 07:28:54;;;;;;;;;;;;;;;18.23;48.04;100895.47;5159452;27;19987;-56
2022/12/25 07:31:19;;;;;;;;;;;;;;;18.24;47.95;100902.63;5152627;27;19992;-56
2022/12/25 07:33:45;;;;;;;;;;;;;;;18.22;48.16;100897.41;5156684;27;19923;-56
2022/12/25 07:36:10;;;;;;;;;;;;;;;18.24;47.82;100894.38;5129036;27;19980;-56
2022/12/25 07:38:38;;;;;;;;;;;;;;;18.23;47.77;100882.50;5129101;27;19923;-56
2022/12/25 07:41:06;;;;;;;;;;;;;;;18.23;47.80;100867.91;5147784;27;20435;-56
2022/12/25 07:43:31;;;;;;;;;;;;;;;18.23;47.93;100860.47;5147214;27;19928;-56
2022/12/25 07:45:57;;;;;;;;;;;;;;;18.25;47.96;100865.69;5147369;27;19927;-56
2022/12/25 07:48:23;;;;;;;;;;;;;;;18.23;47.83;100867.91;5128856;27;19939;-56
2022/12/25 07:51:05;;;;;;;;;;;;;;;18.23;47.79;100876.19;5147557;27;20388;-56
2022/12/25 07:53:30;;;;;;;;;;;;;;;18.23;47.83;100893.53;5147169;27;20315;-56
2022/12/25 07:55:58;;;;;;;;;;;;;;;18.23;47.87;100899.06;5147136;27;19930;-56
2022/12/25 07:58:23;;;;;;;;;;;;;;;18.24;47.97;100895.19;5154549;27;19923;-56
2022/12/25 08:00:49;;;;;;;;;;;;;;;18.24;47.74;100894.38;5167744;27;19923;-55
2022/12/25 08:03:15;;;;;;;;;;;;;;;18.23;47.96;100881.69;5149346;27;19983;-56
2022/12/25 08:05:41;;;;;;;;;;;;;;;18.24;47.98;100883.34;5147031;27;19923;-56
2022/12/25 08:08:06;;;;;;;;;;;;;;;18.24;47.96;100886.09;5147230;27;19933;-56
2022/12/25 08:10:32;;;;;;;;;;;;;;;18.24;47.80;100880.59;5146757;27;19927;-56
2022/12/25 08:12:58;;;;;;;;;;;;;;;18.24;48.11;100881.41;5152707;27;20386;-56
2022/12/25 08:15:23;;;;;;;;;;;;;;;18.23;47.85;100885.28;5172559;27;19971;-56
2022/12/25 08:17:49;;;;;;;;;;;;;;;18.24;48.01;100880.59;5174685;27;19929;-56
2022/12/25 08:20:14;;;;;;;;;;;;;;;18.24;47.95;100869.56;5174881;27;19923;-56
2022/12/25 08:22:40;;;;;;;;;;;;;;;18.24;47.94;100884.16;5148884;27;19931;-56
2022/12/25 08:25:05;;;;;;;;;;;;;;;18.24;48.03;100886.09;5132666;28;20619;-56
2022/12/25 08:27:32;;;;;;;;;;;;;;;18.23;47.93;100857.72;5133215;27;19923;-56
2022/12/25 08:29:58;;;;;;;;;;;;;;;18.24;47.80;100839.25;5153315;27;19954;-56
2022/12/25 08:32:23;;;;;;;;;;;;;;;18.23;47.98;100827.38;5144977;27;19923;-56
2022/12/25 08:34:49;;;;;;;;;;;;;;;18.23;47.98;100827.38;5151889;27;19930;-56
2022/12/25 08:37:14;;;;;;;;;;;;;;;18.23;47.78;100876.19;5153271;27;19946;-56
2022/12/25 08:39:40;;;;;;;;;;;;;;;18.24;48.02;100908.16;5152193;27;20385;-56
2022/12/25 08:42:05;;;;;;;;;;;;;;;18.24;47.98;100919.19;5145214;27;19924;-56
2022/12/25 08:44:31;;;;;;;;;;;;;;;18.24;47.91;100928.28;5132582;27;19924;-56
2022/12/25 08:46:56;;;;;;;;;;;;;;;18.23;47.94;100937.66;5132796;28;19923;-56
2022/12/25 08:49:22;;;;;;;;;;;;;;;18.24;48.02;100933.78;5132740;28;19946;-56
2022/12/25 08:51:48;;;;;;;;;;;;;;;18.24;47.93;100916.41;5132644;27;20279;-56
2022/12/25 08:54:13;;;;;;;;;;;;;;;18.24;48.02;100913.66;5132095;27;19931;-56
2022/12/25 08:56:39;;;;;;;;;;;;;;;18.25;48.05;100890.50;5132797;28;20000;-56
2022/12/25 08:59:04;;;;;;;;;;;;;;;18.24;47.99;100892.44;5145992;27;19923;-56
2022/12/25 09:01:30;;;;;;;;;;;;;;;18.24;48.02;100886.91;5149590;27;20252;-55
2022/12/25 09:03:56;;;;;;;;;;;;;;;18.25;47.83;100874.78;5132226;27;19930;-55
2022/12/25 09:06:21;;;;;;;;;;;;;;;18.23;47.98;100868.72;5132571;28;19976;-55
2022/12/25 09:08:47;;;;;;;;;;;;;;;18.25;47.88;100873.97;5132465;28;19927;-55
2022/12/25 09:11:15;;;;;;;;;;;;;;;18.24;47.99;100875.91;5134561;27;19970;-56
2022/12/25 09:13:41;;;;;;;;;;;;;;;18.24;48.03;100886.91;5142714;27;19931;-56
2022/12/25 09:16:07;;;;;;;;;;;;;;;18.24;48.03;100900.69;5113630;27;19967;-55
2022/12/25 09:18:33;;;;;;;;;;;;;;;18.25;48.00;100907.03;5132303;28;19924;-56
2022/12/25 09:20:59;;;;;;;;;;;;;;;18.25;47.87;100926.34;5113794;28;19931;-56
2022/12/25 09:23:25;;;;;;;;;;;;;;;18.24;48.12;100919.19;5132264;27;19923;-56
2022/12/25 09:25:50;;;;;;;;;;;;;;;18.24;47.77;100922.75;5132976;27;20378;-56
2022/12/25 09:28:16;;;;;;;;;;;;;;;18.24;47.84;100930.19;5152651;27;19923;-56
2022/12/25 09:30:42;;;;;;;;;;;;;;;18.25;48.03;100938.19;5152596;27;19923;-56
2022/12/25 09:33:07;;;;;;;;;;;;;;;18.25;47.84;100931.84;5151960;27;19926;-55
2022/12/25 09:35:33;;;;;;;;;;;;;;;18.25;47.79;100937.38;5152069;27;19983;-55
2022/12/25 09:37:58;;;;;;;;;;;;;;;18.25;47.91;100937.38;5152614;27;19933;-56
2022/12/25 09:40:24;;;;;;;;;;;;;;;18.25;47.88;100940.13;5152746;27;20376;-55
2022/12/25 09:42:51;;;;;;;;;;;;;;;18.25;47.85;100953.91;5125892;27;19986;-56
2022/12/25 09:45:18;;;;;;;;;;;;;;;18.24;47.93;100953.06;5120294;28;19959;-55
2022/12/25 09:47:44;;;;;;;;;;;;;;;18.25;47.78;100956.66;5109925;28;19950;-55
2022/12/25 09:50:30;;;;;;;;;;;;;;;18.25;47.99;100956.66;5111012;28;19931;-56
2022/12/25 09:52:59;;;;;;;;;;;;;;;18.25;47.86;100946.47;5115775;27;19959;-55
2022/12/25 09:55:25;;;;;;;;;;;;;;;18.25;47.82;100934.59;5131515;28;19931;-55
2022/12/25 09:57:52;;;;;;;;;;;;;;;18.25;47.92;100926.34;5116078;27;19923;-55
2022/12/25 10:00:19;;;;;;;;;;;;;;;18.24;47.83;100917.25;5151911;27;19930;-56
2022/12/25 10:03:04;;;;;;;;;;;;;;;18.25;47.76;100915.31;5120102;27;20143;-56
2022/12/25 10:05:40;;;;;;;;;;;;;;;18.25;47.72;100912.56;5116087;28;19928;-56
2022/12/25 10:08:10;;;;;;;;;;;;;;;18.25;47.91;100907.03;5131410;28;19930;-55
2022/12/25 10:10:45;;;;;;;;;;;;;;;18.24;47.94;100902.63;5131169;28;19970;-55
2022/12/25 10:13:22;;;;;;;;;;;;;;;18.25;47.83;100894.09;5137106;27;19932;-55
2022/12/25 10:15:51;;;;;;;;;;;;;;;18.25;47.83;100880.28;5130817;28;20173;-55
2022/12/25 10:18:36;;;;;;;;;;;;;;;18.25;47.81;100871.19;5131148;28;19930;-56
2022/12/25 10:21:03;;;;;;;;;;;;;;;18.25;47.94;100876.72;5115880;28;19924;-55
2022/12/25 10:23:38;;;;;;;;;;;;;;;18.24;47.75;100848.31;5139932;27;19998;-55
2022/12/25 10:26:10;;;;;;;;;;;;;;;18.25;47.72;100857.41;5133184;27;19971;-55
2022/12/25 10:28:38;;;;;;;;;;;;;;;18.25;47.68;100863.75;5151586;27;20283;-55
2022/12/25 10:31:06;;;;;;;;;;;;;;;18.25;47.75;100854.66;5151921;27;19969;-55
2022/12/25 10:33:32;;;;;;;;;;;;;;;18.24;47.71;100859.34;5151519;27;19923;-56
2022/12/25 10:35:57;;;;;;;;;;;;;;;18.24;47.80;100848.31;5151430;27;19929;-55
2022/12/25 10:38:23;;;;;;;;;;;;;;;18.25;47.51;100840.88;5132920;27;20348;-57
2022/12/25 10:40:59;;;;;;;;;;;;;;;18.24;47.70;100837.31;5151122;27;19926;-58
2022/12/25 10:43:29;;;;;;;;;;;;;;;18.25;47.90;100841.69;5151381;27;19923;-58
2022/12/25 10:45:54;;;;;;;;;;;;;;;18.24;47.73;100842.81;5131477;27;19934;-58
2022/12/25 10:48:21;;;;;;;;;;;;;;;18.25;47.82;100840.88;5130994;28;20283;-58
2022/12/25 10:50:47;;;;;;;;;;;;;;;18.25;47.92;100849.16;5112309;28;20379;-58
2022/12/25 10:53:22;;;;;;;;;;;;;;;18.26;47.66;100837.00;5111869;28;20248;-58
2022/12/25 10:56:03;;;;;;;;;;;;;;;18.24;47.64;100837.31;5130645;28;20313;-58
2022/12/25 10:58:29;;;;;;;;;;;;;;;18.25;47.83;100829.84;5120341;27;19927;-58
2022/12/25 11:01:03;;;;;;;;;;;;;;;18.25;47.96;100816.06;5132688;27;19923;-58
2022/12/25 11:03:29;;;;;;;;;;;;;;;18.24;47.65;100818.00;5130856;27;20299;-58
2022/12/25 11:05:55;;;;;;;;;;;;;;;18.25;47.69;100805.88;5130599;28;20169;-58
2022/12/25 11:08:21;;;;;;;;;;;;;;;18.25;47.81;100805.03;5130365;28;19954;-58
2022/12/25 11:10:55;;;;;;;;;;;;;;;18.25;47.68;100791.25;5130745;28;19930;-58
2022/12/25 11:13:23;;;;;;;;;;;;;;;18.25;47.69;100791.25;5132237;27;19927;-58
2022/12/25 11:15:49;;;;;;;;;;;;;;;18.25;47.59;100792.09;5150519;27;20272;-58
2022/12/25 11:18:20;;;;;;;;;;;;;;;18.25;47.61;100777.47;5151290;27;20475;-58
2022/12/25 11:20:49;;;;;;;;;;;;;;;18.25;47.62;100764.53;5151415;27;19927;-58
2022/12/25 11:23:19;;;;;;;;;;;;;;;18.25;47.52;100755.44;5131606;27;19927;-57
2022/12/25 11:25:53;;;;;;;;;;;;;;;18.25;47.69;100719.59;5150729;27;19970;-58
2022/12/25 11:28:18;;;;;;;;;;;;;;;18.25;47.78;100711.31;5150241;27;19930;-58
2022/12/25 11:30:44;;;;;;;;;;;;;;;18.24;47.56;100710.50;5150880;27;19923;-58
2022/12/25 11:33:10;;;;;;;;;;;;;;;18.25;47.76;100700.28;5150823;27;19927;-58
2022/12/25 11:35:42;;;;;;;;;;;;;;;18.24;47.60;100682.94;5132244;27;19923;-58
2022/12/25 11:38:07;;;;;;;;;;;;;;;18.24;47.64;100685.69;5132192;27;19955;-58
2022/12/25 11:40:34;;;;;;;;;;;;;;;18.25;47.71;100692.03;5132442;27;20282;-58
2022/12/25 11:43:02;;;;;;;;;;;;;;;18.24;47.53;100696.72;5150818;27;19923;-58
2022/12/25 11:45:34;;;;;;;;;;;;;;;18.25;47.69;100697.53;5124267;27;19924;-58
2022/12/25 11:48:03;;;;;;;;;;;;;;;18.25;47.68;100703.06;5109331;28;19924;-58
2022/12/25 11:50:31;;;;;;;;;;;;;;;18.25;47.56;100697.53;5112120;28;19938;-58
2022/12/25 11:52:59;;;;;;;;;;;;;;;18.25;47.50;100694.78;5127138;27;20361;-58
2022/12/25 11:55:32;;;;;;;;;;;;;;;18.25;47.66;100676.31;5114866;28;19973;-59
2022/12/25 11:57:58;;;;;;;;;;;;;;;18.25;47.58;100675.50;5137298;27;19927;-58
2022/12/25 12:00:23;;;;;;;;;;;;;;;18.24;47.73;100674.66;5153991;27;19927;-58
2022/12/25 12:03:09;;;;;;;;;;;;;;;18.24;47.49;100674.66;5140335;27;19927;-58
2022/12/25 12:05:55;;;;;;;;;;;;;;;18.25;47.66;100684.56;5118076;28;20446;-58
2022/12/25 12:08:21;;;;;;;;;;;;;;;18.24;47.49;100685.69;5117839;28;19927;-58
2022/12/25 12:10:54;;;;;;;;;;;;;;;18.25;47.72;100678.25;5133384;28;20371;-58
2022/12/25 12:13:32;;;;;;;;;;;;;;;18.25;47.68;100667.22;5151487;27;19923;-58
2022/12/25 12:15:58;;;;;;;;;;;;;;;18.25;47.52;100656.19;5153820;27;19927;-58
2022/12/25 12:18:27;;;;;;;;;;;;;;;18.25;47.48;100664.47;5153863;27;19975;-58
2022/12/25 12:21:03;;;;;;;;;;;;;;;18.24;47.69;100649.84;5153521;27;19927;-58
2022/12/25 12:23:29;;;;;;;;;;;;;;;18.24;47.48;100651.78;5153051;27;20001;-58
2022/12/25 12:25:55;;;;;;;;;;;;;;;18.25;47.43;100645.16;5153721;27;19970;-58
2022/12/25 12:28:22;;;;;;;;;;;;;;;18.24;47.67;100647.09;5153240;27;19923;-58
2022/12/25 12:31:03;;;;;;;;;;;;;;;18.25;47.71;100647.94;5153781;27;19927;-57
2022/12/25 12:33:31;;;;;;;;;;;;;;;18.24;47.66;100641.59;5135050;27;19941;-58
2022/12/25 12:35:56;;;;;;;;;;;;;;;18.25;47.45;100645.16;5135012;27;19927;-58
2022/12/25 12:38:23;;;;;;;;;;;;;;;18.24;47.67;100649.84;5134991;27;19927;-58
2022/12/25 12:40:51;;;;;;;;;;;;;;;18.24;47.52;100640.78;5153139;27;20329;-58
2022/12/25 12:43:36;;;;;;;;;;;;;;;18.24;47.49;100638.84;5134735;27;20054;-58
2022/12/25 12:46:22;;;;;;;;;;;;;;;18.25;47.47;100637.72;5117329;28;19936;-58
2022/12/25 12:49:15;;;;;;;;;;;;;;;18.25;47.41;100631.38;5118633;28;19962;-58
2022/12/25 12:51:41;;;;;;;;;;;;;;;18.24;47.66;100619.53;5121617;27;19988;-58
2022/12/25 12:54:19;;;;;;;;;;;;;;;18.24;47.60;100611.28;5152199;27;20294;-58
2022/12/25 12:57:04;;;;;;;;;;;;;;;18.24;47.73;100615.97;5153439;27;19931;-58
2022/12/25 12:59:36;;;;;;;;;;;;;;;18.25;47.68;100620.34;5137279;27;19966;-58
2022/12/25 13:02:12;;;;;;;;;;;;;;;18.24;47.70;100625.06;5134410;27;20427;-58
2022/12/25 13:04:45;;;;;;;;;;;;;;;18.23;47.38;100617.91;5152915;27;19927;-58
2022/12/25 13:07:15;;;;;;;;;;;;;;;18.24;47.65;100615.97;5153018;27;19927;-58
2022/12/25 13:10:01;;;;;;;;;;;;;;;18.25;47.73;100603.81;5153079;27;20344;-58
2022/12/25 13:12:26;;;;;;;;;;;;;;;18.25;47.63;100599.13;5131543;27;19930;-58
2022/12/25 13:14:52;;;;;;;;;;;;;;;18.24;47.40;100594.72;5131297;27;19927;-58
2022/12/25 13:17:20;;;;;;;;;;;;;;;18.24;47.61;100597.50;5132426;28;20375;-58
2022/12/25 13:19:53;;;;;;;;;;;;;;;18.24;47.44;100593.91;5131834;28;20382;-58
2022/12/25 13:22:21;;;;;;;;;;;;;;;18.24;47.47;100585.63;5113519;28;20383;-58
2022/12/25 13:24:53;;;;;;;;;;;;;;;18.25;47.47;100579.00;5131665;27;19924;-58
2022/12/25 13:27:20;;;;;;;;;;;;;;;18.24;47.57;100580.94;5131410;28;20339;-58
2022/12/25 13:29:45;;;;;;;;;;;;;;;18.25;47.48;100579.00;5150924;27;19922;-58
2022/12/25 13:32:14;;;;;;;;;;;;;;;18.24;47.42;100577.38;5144067;27;20053;-58
2022/12/25 13:34:40;;;;;;;;;;;;;;;18.24;47.59;100582.88;5131573;27;20360;-58
2022/12/25 13:37:07;;;;;;;;;;;;;;;18.24;47.40;100578.19;5113604;28;19972;-58
2022/12/25 13:39:33;;;;;;;;;;;;;;;18.24;47.53;100580.13;5113561;28;19992;-58
2022/12/25 13:42:08;;;;;;;;;;;;;;;18.24;47.41;100585.63;5128745;27;19923;-58
2022/12/25 13:44:50;;;;;;;;;;;;;;;18.24;47.45;100585.63;5134214;27;20413;-58
2022/12/25 13:47:21;;;;;;;;;;;;;;;18.24;47.35;100583.72;5113286;28;19924;-57
2022/12/25 13:49:47;;;;;;;;;;;;;;;18.24;47.59;100588.41;5113273;28;19935;-58
2022/12/25 13:52:14;;;;;;;;;;;;;;;18.24;47.43;100585.63;5119602;27;19923;-58
2022/12/25 13:54:50;;;;;;;;;;;;;;;18.24;47.47;100586.47;5151818;27;19974;-58
2022/12/25 13:57:15;;;;;;;;;;;;;;;18.24;47.53;100578.19;5152305;27;19926;-58
2022/12/25 13:59:42;;;;;;;;;;;;;;;18.25;47.57;100581.78;5151388;27;19946;-58
2022/12/25 14:02:12;;;;;;;;;;;;;;;18.24;47.48;100580.13;5133509;27;19931;-58
2022/12/25 14:04:42;;;;;;;;;;;;;;;18.24;47.51;100575.44;5152118;27;19929;-58
2022/12/25 14:07:08;;;;;;;;;;;;;;;18.25;47.29;100565.22;5151766;27;20298;-58
2022/12/25 14:09:34;;;;;;;;;;;;;;;18.24;47.27;100560.84;5151745;27;20276;-58
2022/12/25 14:11:59;;;;;;;;;;;;;;;18.24;47.33;100571.84;5147050;27;20374;-58
2022/12/25 14:14:26;;;;;;;;;;;;;;;18.24;47.38;100571.84;5131063;27;19934;-58
2022/12/25 14:16:53;;;;;;;;;;;;;;;18.24;47.42;100569.91;5131333;28;19923;-58
2022/12/25 14:19:34;;;;;;;;;;;;;;;18.24;47.59;100569.91;5112351;28;20279;-58
2022/12/25 14:22:00;;;;;;;;;;;;;;;18.24;47.37;100567.16;5130578;27;20416;-58
2022/12/25 14:24:27;;;;;;;;;;;;;;;18.24;47.36;100574.63;5112161;28;19927;-58
2022/12/25 14:26:56;;;;;;;;;;;;;;;18.24;47.40;100580.13;5112792;28;19971;-58